Terminal Aerodrome Forecast
Issued by NWS

Home | Current Version | Previous Version | Text Only | Print | Product List | Glossary On
Versions: 1 2 3 4 5 6 7 8 9 10 11 12 13 14 15 16 17 18 19 20 21 22
766
FTUS46 KMFR 290538
TAFOTH
TAF
KOTH 290538Z 2906/3006 36010KT 4SM BR SCT002 OVC004
     FM291100 35008KT 1SM BR OVC002
     FM291600 35016G24KT P6SM SCT008
     FM291900 36026G34KT P6SM SKC
     FM292300 36024G34KT P6SM OVC006=

USA.gov is the U.S. government's official web portal to all federal, state and local government web resources and services.